Flight Track Log - Related Links

Times and Time Zones

All times are in EST time to prevent confusion due to time zone crossing. See the BOE1 flight status page for this flight to view local times or setup timezone preferences in your user account.


Time Position Orientation Groundspeed Altitude Reporting Facility
EST Latitude Longitude Course Direction KTS MPH feet Rate Location/Type
Thu 01:50:16 PM 47.9550 -122.2440 16° North 368 423 22,000  Level Seattle Center
Thu 01:51:15 PM 48.0600 -122.1990 17° North 376 433 25,000 2,571 Climbing Seattle Center
Thu 01:52:15 PM 48.1672 -122.1510 55° Northeast 376 433 27,100 1,900 Climbing Seattle Center
Thu 01:53:15 PM 48.2364 -122.0050 103° East 388 447 28,800 1,450 Climbing Seattle Center
Thu 01:54:15 PM 48.2008 -121.7830 105° East 409 471 30,000 595 Climbing Seattle Center
Thu 01:55:16 PM 48.1589 -121.5450 103° East 482 555 30,000 50 Level Seattle Center
Thu 01:56:15 PM 48.1208 -121.2950 102° East 550 633 30,100 50 Climbing Seattle Center
Thu 01:57:15 PM 48.0861 -121.0460 101° East 589 678 30,100  Level Seattle Center
Thu 01:58:16 PM 48.0572 -120.8220 98° East 612 704 30,100 150 Level Seattle Center
Thu 01:59:15 PM 48.0342 -120.5760 95° East 612 704 30,400  Climbing Seattle Center
Thu 02:00:15 PM 48.0189 -120.3410 92° East 594 684 30,100 -198 Descending Seattle Center
Thu 02:01:16 PM 48.0133 -120.0990 93° East 589 678 30,000 -50 Descending Seattle Center
Thu 02:02:15 PM 48.0056 -119.8630 94° East 584 672 30,000  Level Seattle Center
Thu 02:03:15 PM 47.9931 -119.6250 95° East 571 657 30,000 -149 Level Seattle Center
Thu 02:04:16 PM 47.9800 -119.3960 93° East 571 657 29,700 -100 Descending Seattle Center
Thu 02:05:15 PM 47.9706 -119.1630 96° East 571 657 29,800 -50 Climbing Seattle Center
Thu 02:06:15 PM 47.9547 -118.9340 78° East 561 646 29,600  Descending Seattle Center
Thu 02:07:15 PM 47.9842 -118.7170 21° North 538 619 29,800 100 Climbing Seattle Center
Thu 02:08:15 PM 48.1103 -118.6460 317° Northwest 442 509 29,800 50 Level Seattle Center
Thu 02:09:15 PM 48.2031 -118.7750 274° West 316 364 29,900 50 Climbing Seattle Center
Thu 02:10:15 PM 48.2128 -118.9670 269° West 308 354 29,900 -50 Level Seattle Center
Thu 02:11:15 PM 48.2097 -119.1640 266° West 381 438 29,800  Descending Seattle Center
Thu 02:12:16 PM 48.2003 -119.3600 265° West 436 502 29,900 50 Climbing Seattle Center
Thu 02:13:15 PM 48.1883 -119.5490 262° West 460 529 29,900 101 Level Seattle Center
Thu 02:14:15 PM 48.1697 -119.7420 262° West 468 539 30,100 100 Climbing Seattle Center
Thu 02:15:15 PM 48.1511 -119.9290 264° West 473 544 30,100 -50 Level Seattle Center
Thu 02:16:15 PM 48.1383 -120.1180 275° West 468 539 30,000 -100 Descending Seattle Center
Thu 02:17:15 PM 48.1481 -120.3040 273° West 462 532 29,900 -100 Descending Seattle Center
Thu 02:18:15 PM 48.1553 -120.4880 272° West 456 525 29,800 50 Descending Seattle Center
Thu 02:19:15 PM 48.1603 -120.6710 272° West 456 525 30,000 100 Climbing Seattle Center
Thu 02:20:15 PM 48.1650 -120.8740 270° West 451 519 30,000 -100 Level Seattle Center
Thu 02:21:15 PM 48.1653 -121.0480 268° West 438 504 29,800 -200 Descending Seattle Center
Thu 02:22:15 PM 48.1611 -121.2280 269° West 433 498 29,600 -50 Descending Seattle Center
Thu 02:23:15 PM 48.1589 -121.4020 269° West 433 498 29,700 100 Climbing Seattle Center
Thu 02:24:15 PM 48.1567 -121.5630 269° West 433 498 29,800 -50 Climbing Seattle Center
Thu 02:25:15 PM 48.1536 -121.7460 269° West 438 504 29,600 50 Descending Seattle Center
Thu 02:26:15 PM 48.1506 -121.9230 291° West 438 504 29,900 200 Climbing Seattle Center
Thu 02:27:15 PM 48.1894 -122.0770 360° North 421 484 30,000 50 Climbing Seattle Center
Thu 02:28:16 PM 48.3058 -122.0760 67° East 332 382 30,000  Level Seattle Center
Thu 02:29:15 PM 48.3639 -121.8670 109° East 309 356 30,000 50 Level Seattle Center
Thu 02:30:15 PM 48.3075 -121.6240 110° East 398 458 30,100  Climbing Seattle Center
Thu 02:31:15 PM 48.2464 -121.3790 111° Southeast 526 605 30,000  Descending Seattle Center
Thu 02:32:16 PM 48.1850 -121.1380 112° Southeast 574 661 30,100 100 Climbing Seattle Center
Thu 02:33:15 PM 48.1208 -120.9040 104° East 601 692 30,200 50 Climbing Seattle Center
Thu 02:34:15 PM 48.0794 -120.6510 98° East 614 707 30,200 -50 Level Seattle Center
Thu 02:35:15 PM 48.0558 -120.4030 97° East 608 700 30,100 -150 Descending Seattle Center
Thu 02:36:15 PM 48.0361 -120.1520 94° East 608 700 29,900 -100 Descending Seattle Center
Thu 02:37:15 PM 48.0242 -119.9070 95° East 598 688 29,900 -100 Level Seattle Center
Thu 02:38:15 PM 48.0097 -119.6620 95° East 593 682 29,700 -50 Descending Seattle Center
Thu 02:39:15 PM 47.9947 -119.4200 94° East 593 682 29,800 -50 Climbing Seattle Center
Thu 02:40:15 PM 47.9833 -119.1850 94° East 588 677 29,600 150 Descending Seattle Center
Thu 02:41:15 PM 47.9736 -118.9560 93° East 575 662 30,100 200 Climbing Seattle Center
Thu 02:42:15 PM 47.9653 -118.7140 95° East 570 656 30,000 50 Descending Seattle Center
Thu 02:43:16 PM 47.9525 -118.4760 96° East 570 656 30,200 -100 Climbing Seattle Center
Thu 02:44:15 PM 47.9353 -118.2480 98° East 570 656 29,800 -252 Descending Seattle Center
Thu 02:45:15 PM 47.9133 -118.0190 101° East 560 644 29,700 -99 Descending Seattle Center
Thu 02:46:16 PM 47.8847 -117.7920 100° East 560 644 29,600  Descending Seattle Center
Thu 02:47:15 PM 47.8553 -117.5450 100° East 560 644 29,700 50 Climbing Seattle Center
Thu 02:48:15 PM 47.8281 -117.3180 103° East 560 644 29,700 250 Level Seattle Center
Thu 02:49:15 PM 47.7967 -117.1160 100° East 560 644 30,200 150 Climbing Seattle Center
Thu 02:50:15 PM 47.7678 -116.8640 92° East 560 644 30,000 -150 Descending Seattle Center
Thu 02:51:15 PM 47.7622 -116.6450 40° Northeast 544 626 29,900 -50 Descending Seattle Center
Thu 02:52:15 PM 47.8689 -116.5120 339° North 451 519 29,900  Level Seattle Center
Thu 02:53:15 PM 47.9914 -116.5820 285° West 343 395 29,900 50 Level Seattle Center
Thu 02:54:15 PM 48.0256 -116.7760 274° West 322 371 30,000 -50 Climbing Seattle Center
Thu 02:55:15 PM 48.0347 -116.9830 275° West 388 447 29,800 -150 Descending Seattle Center
Thu 02:56:15 PM 48.0456 -117.1840 273° West 452 520 29,700 -99 Descending Seattle Center
Thu 02:57:16 PM 48.0519 -117.3880 268° West 481 554 29,600 50 Descending Seattle Center
Thu 02:58:15 PM 48.0472 -117.5710 264° West 470 541 29,800 101 Climbing Seattle Center
Thu 02:59:15 PM 48.0356 -117.7360 265° West 437 503 29,800 -50 Level Seattle Center
Thu 03:00:15 PM 48.0261 -117.9040 267° West 416 479 29,700 500 Descending Seattle Center
Thu 03:01:15 PM 48.0200 -118.0590 270° West 416 479 30,800 650 Climbing Seattle Center
Thu 03:02:15 PM 48.0200 -118.2170 272° West 402 463 31,000 99 Climbing Seattle Center
Thu 03:03:16 PM 48.0242 -118.3750 272° West 390 449 31,000  Level Seattle Center
Thu 03:04:16 PM 48.0281 -118.5300 272° West 379 436 31,000 151 Level Seattle Center
Thu 03:05:15 PM 48.0317 -118.6850 273° West 379 436 31,300 1,361 Climbing Seattle Center
Thu 03:06:15 PM 48.0372 -118.8370 272° West 379 436 33,700 1,835 Climbing Seattle Center
Thu 03:07:16 PM 48.0403 -118.9830 271° West 373 429 35,000 700 Climbing Seattle Center
Thu 03:08:15 PM 48.0411 -119.1340 269° West 368 423 35,100 -151 Climbing Seattle Center
Thu 03:09:15 PM 48.0397 -119.2770 264° West 357 411 34,700 -250 Descending Seattle Center
Thu 03:10:15 PM 48.0300 -119.4170 264° West 352 405 34,600 -100 Descending Seattle Center
Thu 03:11:15 PM 48.0200 -119.5590 267° West 347 399 34,500 -50 Descending Seattle Center
Thu 03:12:15 PM 48.0158 -119.6960 266° West 347 399 34,500 50 Level Seattle Center
Thu 03:13:15 PM 48.0097 -119.8380 265° West 347 399 34,600  Climbing Seattle Center
Thu 03:14:15 PM 48.0014 -119.9780 264° West 347 399 34,500 50 Descending Seattle Center
Thu 03:15:15 PM 47.9925 -120.1140 273° West 347 399 34,700 250 Climbing Seattle Center
Thu 03:16:15 PM 47.9964 -120.2500 275° West 347 399 35,000  Climbing Seattle Center
Thu 03:17:15 PM 48.0039 -120.3900 281° West 341 392 34,700 -100 Descending Seattle Center
Thu 03:18:15 PM 48.0200 -120.5170 279° West 336 387 34,800 50 Climbing Seattle Center
Thu 03:19:15 PM 48.0336 -120.6440 282° West 331 381 34,800  Level Seattle Center
Thu 03:20:15 PM 48.0533 -120.7780 282° West 326 375 34,800  Level Seattle Center
Thu 03:21:15 PM 48.0711 -120.9060 277° West 326 375 34,800  Level Seattle Center
Thu 03:22:16 PM 48.0819 -121.0460 276° West 326 375 34,800  Level Seattle Center
Thu 03:23:16 PM 48.0928 -121.2070 276° West 347 399 34,800  Level Seattle Center
Thu 03:24:15 PM 48.1033 -121.3500 276° West 353 406 34,800 50 Level Seattle Center
Thu 03:25:16 PM 48.1139 -121.4930 276° West 353 406 34,900 -99 Climbing Seattle Center
Thu 03:26:16 PM 48.1242 -121.6430 278° West 353 406 34,600 -50 Descending Seattle Center
Thu 03:27:15 PM 48.1383 -121.7860 342° North 353 406 34,800 202 Climbing Seattle Center
Thu 03:28:15 PM 48.2333 -121.8330 59° Northeast 299 344 35,000 100 Climbing Seattle Center
Thu 03:29:15 PM 48.2983 -121.6680 101° East 263 303 35,000  Level Seattle Center
Thu 03:30:15 PM 48.2686 -121.4390 101° East 359 413 35,000 99 Level Seattle Center
Thu 03:31:16 PM 48.2403 -121.2140 100° East 459 528 35,200 400 Climbing Seattle Center
Thu 03:32:15 PM 48.2136 -120.9860 99° East 501 577 35,800 -50 Climbing Seattle Center
Thu 03:33:16 PM 48.1928 -120.7870 100° East 542 624 35,100 -500 Descending Seattle Center
Thu 03:34:15 PM 48.1653 -120.5590 97° East 548 631 34,800 -202 Descending Seattle Center
Thu 03:35:15 PM 48.1478 -120.3320 98° East 548 631 34,700 -99 Descending Seattle Center
Thu 03:36:16 PM 48.1258 -120.1090 100° East 548 631 34,600 150 Descending Seattle Center
Thu 03:37:15 PM 48.0992 -119.8760 101° East 548 631 35,000 202 Climbing Seattle Center
Thu 03:38:15 PM 48.0700 -119.6490 100° East 553 636 35,000  Level Seattle Center
Thu 03:39:15 PM 48.0425 -119.4110 100° East 565 650 35,000  Level Seattle Center
Thu 03:40:15 PM 48.0144 -119.1780 100° East 565 650 35,000 -99 Level Seattle Center
Thu 03:41:16 PM 47.9861 -118.9490 101° East 565 650 34,800 -50 Descending Seattle Center
Thu 03:42:15 PM 47.9572 -118.7210 102° East 560 644 34,900 202 Climbing Seattle Center
Thu 03:43:15 PM 47.9258 -118.4990 101° East 555 639 35,200 100 Climbing Seattle Center
Thu 03:44:15 PM 47.8983 -118.2860 101° East 540 621 35,100 -250 Descending Seattle Center
Thu 03:45:15 PM 47.8706 -118.0700 98° East 528 608 34,700 -150 Descending Seattle Center
Thu 03:46:15 PM 47.8506 -117.8580 100° East 522 601 34,800 -50 Climbing Seattle Center
Thu 03:47:15 PM 47.8261 -117.6490 101° East 522 601 34,600 -200 Descending Seattle Center
Thu 03:48:15 PM 47.7947 -117.4150 103° East 522 601 34,400 -50 Descending Seattle Center
Thu 03:49:15 PM 47.7658 -117.2280 103° East 517 595 34,500 50 Climbing Seattle Center
Thu 03:50:15 PM 47.7314 -117.0020 85° East 517 595 34,500 149 Level Seattle Center
Thu 03:51:16 PM 47.7431 -116.7940 19° North 510 587 34,800 250 Climbing Seattle Center
Thu 03:52:15 PM 47.8622 -116.7320 300° West 370 426 35,000 101 Climbing Seattle Center
Thu 03:53:15 PM 47.9200 -116.8810 259° West 229 264 35,000 150 Level Seattle Center
Thu 03:54:15 PM 47.8953 -117.0670 270° West 312 359 35,300 150 Climbing Seattle Center
Thu 03:55:15 PM 47.8953 -117.2500 275° West 378 435 35,300 -99 Level Seattle Center
Thu 03:56:16 PM 47.9053 -117.4350 275° West 421 484 35,100 -50 Descending Seattle Center
Thu 03:57:15 PM 47.9169 -117.6170 277° West 441 507 35,200 -50 Climbing Seattle Center
Thu 03:58:15 PM 47.9306 -117.7870 276° West 457 526 35,000 -250 Descending Seattle Center
Thu 03:59:15 PM 47.9436 -117.9630 275° West 457 526 34,700 -150 Descending Seattle Center
Thu 04:00:15 PM 47.9547 -118.1420 276° West 452 520 34,700 -50 Level Seattle Center
Thu 04:01:15 PM 47.9675 -118.3210 275° West 440 506 34,600 -150 Descending Seattle Center
Thu 04:02:15 PM 47.9778 -118.4910 276° West 430 495 34,400 -150 Descending Seattle Center
Thu 04:03:15 PM 47.9897 -118.6550 280° West 420 483 34,300  Descending Seattle Center
Thu 04:04:15 PM 48.0078 -118.8160 279° West 408 470 34,400 200 Climbing Seattle Center
Thu 04:05:15 PM 48.0256 -118.9770 282° West 408 470 34,700 100 Climbing Seattle Center
Thu 04:06:15 PM 48.0475 -119.1340 275° West 398 458 34,600 -133 Descending Seattle Center
Thu 04:08:15 PM 48.0675 -119.4570 278° West 388 447 34,300 -67 Descending Seattle Center
Thu 04:09:15 PM 48.0825 -119.6180 279° West 388 447 34,400 100 Climbing Seattle Center
Thu 04:10:15 PM 48.0992 -119.7830 278° West 393 452 34,500 99 Climbing Seattle Center
Thu 04:11:16 PM 48.1136 -119.9410 274° West 393 452 34,600 100 Climbing Seattle Center
Thu 04:12:15 PM 48.1217 -120.1060 269° West 393 452 34,700 50 Climbing Seattle Center
Thu 04:13:15 PM 48.1189 -120.2730 269° West 393 452 34,700  Level Seattle Center
Thu 04:14:16 PM 48.1161 -120.4380 264° West 399 459 34,700  Level Seattle Center
Thu 04:15:15 PM 48.1047 -120.6080 265° West 409 471 34,700 101 Level Seattle Center
Thu 04:16:15 PM 48.0950 -120.7790 268° West 409 471 34,900 149 Climbing Seattle Center
Thu 04:17:16 PM 48.0911 -120.9650 272° West 409 471 35,000  Climbing Seattle Center
Thu 04:18:15 PM 48.0956 -121.1360 273° West 409 471 34,900 50 Descending Seattle Center
Thu 04:19:15 PM 48.1019 -121.3040 276° West 409 471 35,100  Climbing Seattle Center
Thu 04:20:15 PM 48.1142 -121.4750 274° West 409 471 34,900 -50 Descending Seattle Center
Thu 04:21:15 PM 48.1222 -121.6300 275° West 414 476 35,000 300 Climbing Seattle Center
Thu 04:22:15 PM 48.1319 -121.8050 277° West 419 482 35,500 100 Climbing Seattle Center
Thu 04:23:15 PM 48.1456 -121.9760 327° Northwest 424 488 35,200 -150 Descending Seattle Center
Thu 04:24:15 PM 48.2375 -122.0670 35° Northeast 377 434 35,200 -100 Level Seattle Center
Thu 04:25:15 PM 48.3478 -121.9500 94° East 318 366 35,000 -100 Descending Seattle Center
Thu 04:26:15 PM 48.3372 -121.7160 107° East 335 386 35,000 50 Level Seattle Center
Thu 04:27:15 PM 48.2889 -121.4800 108° East 440 506 35,100 -50 Climbing Seattle Center
Thu 04:28:15 PM 48.2378 -121.2420 108° East 533 613 34,900 -150 Descending Seattle Center
Thu 04:29:15 PM 48.1864 -121.0040 109° East 571 657 34,800 -100 Descending Seattle Center
Thu 04:30:15 PM 48.1306 -120.7670 110° East 596 686 34,700 -99 Descending Seattle Center
Thu 04:31:16 PM 48.0719 -120.5300 98° East 601 692 34,600 -50 Descending Seattle Center
Thu 04:32:15 PM 48.0481 -120.2850 96° East 601 692 34,600 -50 Level Seattle Center
Thu 04:33:15 PM 48.0303 -120.0370 95° East 601 692 34,500 50 Descending Seattle Center
Thu 04:34:15 PM 48.0139 -119.7830 94° East 601 692 34,700 150 Climbing Seattle Center
Thu 04:35:15 PM 48.0033 -119.5380 92° East 601 692 34,800 100 Climbing Seattle Center
Thu 04:36:15 PM 47.9961 -119.2840 93° East 601 692 34,900 347 Climbing Seattle Center
Thu 04:37:16 PM 47.9867 -119.0420 92° East 595 685 35,500 1,450 Climbing Seattle Center
Thu 04:38:15 PM 47.9808 -118.8160 94° East 571 657 37,800 1,916 Climbing Seattle Center
Thu 04:39:15 PM 47.9706 -118.6060 94° East 534 615 39,300 900 Climbing Seattle Center
Thu 04:40:15 PM 47.9600 -118.3990 96° East 513 590 39,600 347 Climbing Seattle Center
Thu 04:41:16 PM 47.9447 -118.1860 94° East 513 590 40,000 200 Climbing Seattle Center
Thu 04:42:15 PM 47.9356 -117.9780 94° East 513 590 40,000 -101 Level Seattle Center
Thu 04:43:15 PM 47.9261 -117.7680 93° East 513 590 39,800 -100 Descending Seattle Center
Thu 04:44:15 PM 47.9178 -117.5490 97° East 503 579 39,800 99 Level Seattle Center
Thu 04:45:16 PM 47.9011 -117.3360 102° East 498 573 40,000 50 Climbing Seattle Center
Thu 04:46:15 PM 47.8717 -117.1280 104° East 498 573 39,900 -101 Descending Seattle Center
Thu 04:47:15 PM 47.8378 -116.9220 105° East 503 579 39,800 -100 Descending Seattle Center
Thu 04:48:15 PM 47.8014 -116.7170 108° East 508 585 39,700 -100 Descending Seattle Center
Thu 04:49:15 PM 47.7586 -116.5160 108° East 508 585 39,600 -50 Descending Seattle Center
Thu 04:50:15 PM 47.7156 -116.3180 110° East 508 585 39,600 50 Level Seattle Center
Thu 04:51:15 PM 47.6658 -116.1180 100° East 508 585 39,700 100 Climbing Seattle Center
Thu 04:52:15 PM 47.6406 -115.9130 35° Northeast 507 583 39,800 149 Climbing Seattle Center
Thu 04:53:16 PM 47.7431 -115.8070 319° Northwest 378 435 40,000 100 Climbing Seattle Center
Thu 04:54:15 PM 47.8322 -115.9210 274° West 248 285 40,000 -50 Level Seattle Center
Thu 04:55:15 PM 47.8403 -116.1060 273° West 299 344 39,900 -99 Descending Seattle Center
Thu 04:56:16 PM 47.8458 -116.2940 273° West 369 425 39,800 -150 Descending Seattle Center
Thu 04:57:15 PM 47.8511 -116.4760 273° West 416 479 39,600 -202 Descending Seattle Center
Thu 04:58:15 PM 47.8583 -116.6610 273° West 443 510 39,400 50 Descending Seattle Center
Thu 04:59:15 PM 47.8653 -116.8530 274° West 459 528 39,700 250 Climbing Seattle Center
Thu 05:00:15 PM 47.8739 -117.0370 272° West 459 528 39,900 100 Climbing Seattle Center
Thu 05:01:15 PM 47.8781 -117.2230 273° West 459 528 39,900 -100 Level Seattle Center
Thu 05:02:15 PM 47.8839 -117.4110 274° West 459 528 39,700 -150 Descending Seattle Center
Thu 05:03:15 PM 47.8917 -117.5990 274° West 459 528 39,600  Descending Seattle Center
Thu 05:04:15 PM 47.8989 -117.7690 274° West 459 528 39,700 99 Climbing Seattle Center
Thu 05:05:16 PM 47.9083 -117.9610 274° West 459 528 39,800 50 Climbing Seattle Center
Thu 05:06:15 PM 47.9172 -118.1460 274° West 459 528 39,800  Level Seattle Center
Thu 05:07:15 PM 47.9258 -118.3350 275° West 459 528 39,800 50 Level Seattle Center
Thu 05:08:15 PM 47.9364 -118.5230 275° West 454 522 39,900  Climbing Seattle Center
Thu 05:09:15 PM 47.9467 -118.7060 275° West 459 528 39,800 -100 Descending Seattle Center
Thu 05:10:15 PM 47.9586 -118.8970 276° West 464 534 39,700 -50 Descending Seattle Center
Thu 05:11:15 PM 47.9722 -119.0890 277° West 464 534 39,700 50 Level Seattle Center
Thu 05:12:15 PM 47.9878 -119.2780 279° West 464 534 39,800  Climbing Seattle Center
Thu 05:13:15 PM 48.0072 -119.4670 279° West 464 534 39,700 -50 Descending Seattle Center
Thu 05:14:15 PM 48.0264 -119.6490 280° West 464 534 39,700 50 Level Seattle Center
Thu 05:15:15 PM 48.0472 -119.8350 275° West 464 534 39,800 100 Climbing Seattle Center
Thu 05:16:15 PM 48.0572 -120.0240 274° West 464 534 39,900 50 Climbing Seattle Center
Thu 05:17:15 PM 48.0650 -120.2070 271° West 459 528 39,900 -50 Level Seattle Center
Thu 05:18:15 PM 48.0664 -120.3940 271° West 459 528 39,800 -100 Descending Seattle Center
Thu 05:19:15 PM 48.0675 -120.5770 269° West 454 522 39,700 -50 Descending Seattle Center
Thu 05:20:15 PM 48.0661 -120.7630 273° West 454 522 39,700  Level Seattle Center
Thu 05:21:15 PM 48.0725 -120.9620 276° West 454 522 39,700 50 Level Seattle Center
Thu 05:22:15 PM 48.0850 -121.1450 300° West 448 516 39,800 150 Climbing Seattle Center
Thu 05:23:15 PM 48.1436 -121.2960 10° North 413 475 40,000 100 Climbing Seattle Center
Thu 05:24:15 PM 48.2667 -121.2650 76° East 332 382 40,000  Level Seattle Center
Thu 05:25:15 PM 48.3003 -121.0540 102° East 313 360 40,000  Level Seattle Center
Thu 05:26:15 PM 48.2692 -120.8410 99° East 451 519 40,000 -300 Level Seattle Center
Thu 05:27:15 PM 48.2439 -120.6110 96° East 498 573 39,400 -100 Descending Seattle Center
Thu 05:28:15 PM 48.2267 -120.3800 100° East 539 620 39,800 200 Climbing Seattle Center
Thu 05:29:15 PM 48.2006 -120.1500 99° East 555 639 39,800 -50 Level Seattle Center
Thu 05:30:16 PM 48.1761 -119.9130 101° East 562 647 39,700 -50 Descending Seattle Center
Thu 05:31:15 PM 48.1447 -119.6830 102° East 567 652 39,700 -50 Level Seattle Center
Thu 05:32:16 PM 48.1133 -119.4540 103° East 562 647 39,600 -100 Descending Seattle Center
Thu 05:33:15 PM 48.0769 -119.2270 103° East 562 647 39,500  Descending Seattle Center
Thu 05:34:15 PM 48.0425 -118.9980 101° East 562 647 39,600 -50 Climbing Seattle Center
Thu 05:35:16 PM 48.0136 -118.7690 103° East 562 647 39,400 -100 Descending Seattle Center
Thu 05:36:15 PM 47.9783 -118.5410 103° East 562 647 39,400 101 Level Seattle Center
Thu 05:37:15 PM 47.9425 -118.3190 102° East 562 647 39,600 150 Climbing Seattle Center
Thu 05:38:15 PM 47.9103 -118.0940 103° East 562 647 39,700 150 Climbing Seattle Center
Thu 05:39:15 PM 47.8758 -117.8780 104° East 552 635 39,900 350 Climbing Seattle Center
Thu 05:40:15 PM 47.8411 -117.6690 92° East 538 619 40,400 500 Climbing Seattle Center
Thu 05:41:15 PM 47.8367 -117.4410 56° Northeast 502 578 40,900 550 Climbing Seattle Center
Thu 05:42:15 PM 47.9144 -117.2680 23° Northeast 468 539 41,500 600 Climbing Seattle Center
Thu 05:43:15 PM 48.0375 -117.1910 346° North 431 496 42,100 645 Climbing Seattle Center
Thu 05:44:16 PM 48.1528 -117.2340 307° West 376 433 42,800 446 Climbing Seattle Center
Thu 05:45:16 PM 48.2222 -117.3740 272° West 353 406 43,000 101 Climbing Seattle Center
Thu 05:46:15 PM 48.2258 -117.5520 269° West 356 410 43,000  Level Seattle Center
Thu 05:47:15 PM 48.2228 -117.7320 271° West 394 453 43,000  Level Seattle Center
Thu 05:48:15 PM 48.2239 -117.9160 261° West 422 486 43,000  Level Seattle Center
Thu 05:49:16 PM 48.2036 -118.1000 261° West 444 511 43,000 -50 Level Seattle Center
Thu 05:50:16 PM 48.1850 -118.2680 257° West 454 522 42,900  Descending Seattle Center
Thu 05:51:15 PM 48.1561 -118.4530 260° West 454 522 43,000 101 Climbing Seattle Center
Thu 05:52:15 PM 48.1331 -118.6390 260° West 459 528 43,100 -400 Climbing Seattle Center
Thu 05:53:15 PM 48.1097 -118.8290 260° West 459 528 42,200 -1,250 Descending Seattle Center
Thu 05:54:15 PM 48.0864 -119.0160 260° West 464 534 40,600 -1,650 Descending Seattle Center
Thu 05:55:15 PM 48.0644 -119.1990 259° West 469 540 38,900 -850 Descending Seattle Center
Thu 05:56:15 PM 48.0422 -119.3700 270° West 453 521 38,900  Level Seattle Center
Thu 05:57:15 PM 48.0428 -119.5280 266° West 424 488 38,900 -99 Level Seattle Center
Thu 05:58:16 PM 48.0347 -119.6960 260° West 399 459 38,700 -545 Descending Seattle Center
Thu 05:59:16 PM 48.0158 -119.8630 258° West 409 471 37,800 -1,600 Descending Seattle Center
Thu 06:00:16 PM 47.9950 -120.0150 263° West 404 465 35,500 -2,521 Descending Seattle Center
Thu 06:01:15 PM 47.9822 -120.1610 261° West 383 441 32,800 -3,025 Descending Seattle Center
Thu 06:02:15 PM 47.9650 -120.3150 257° West 376 433 29,500 -3,400 Descending Seattle Center
Thu 06:03:15 PM 47.9392 -120.4820 274° West 389 448 26,000 -2,700 Descending Seattle Center
Thu 06:04:15 PM 47.9464 -120.6430 271° West 400 460 24,100 -2,033 Descending Seattle Center
Thu 06:05:16 PM 47.9472 -120.7920 276° West 383 441 21,900 -2,500 Descending Seattle Center
Thu 06:06:15 PM 47.9583 -120.9440 276° West 378 435 19,100 -2,168 Descending Seattle Center
Thu 06:07:15 PM 47.9672 -121.0830 271° West 361 415 17,600 -2,000 Descending Seattle Center
Thu 06:08:15 PM 47.9697 -121.2320 254° West 342 394 15,100 -2,039 Descending Seattle Center
Thu 06:08:58 PM 47.9519 -121.3240 264° West 320 368 14,100 -1,700 Descending Seattle Center
Thu 06:09:15 PM 47.9494 -121.3580 254° West 327 376 13,400 -1,343 Descending Seattle Center
Thu 06:10:05 PM 47.9292 -121.4630 256° West 295 339 12,600 -1,243 Descending Seattle Center
Thu 06:11:06 PM 47.9111 -121.5710 255° West 274 315 11,100 -1,033 Descending Seattle Center
Thu 06:12:07 PM 47.8906 -121.6810 232° Southwest 275 316 10,500 -1,034 Descending Seattle Center
Thu 06:13:02 PM 47.8475 -121.7630 221° Southwest 275 316 9,100 -1,513 Descending Seattle Center
Thu 06:14:02 PM 47.7922 -121.8350 222° Southwest 268 308 7,600 -1,409 Descending Seattle Center
Thu 06:14:57 PM 47.7433 -121.9010 218° Southwest 251 289 6,400 -1,479 Descending Seattle Center
Thu 06:15:15 PM 47.7306 -121.9160 248° West 264 304 5,800 -1,377 Descending Seattle Center
Thu 06:15:58 PM 47.7150 -121.9740 262° West 225 259 5,000 -1,279 Descending Seattle Center
Thu 06:16:16 PM 47.7122 -122.0050 272° West 223 257 4,500 -1,200 Descending Seattle Center
Thu 06:16:53 PM 47.7133 -122.0600 274° West 227 261 3,900 -1,119 Descending Seattle Center
Thu 06:17:15 PM 47.7147 -122.0940 271° West 218 251 3,400 -1,100 Descending Seattle Center
Thu 06:17:53 PM 47.7156 -122.1530 268° West 224 258 2,800 -1,000 Descending Seattle Center
Thu 06:18:15 PM 47.7150 -122.1840 268° West 218 251 2,400 -493 Descending Seattle Center
Thu 06:19:06 PM 47.7133 -122.2640 268° West 219 252 2,200 -57 Descending Seattle Center
Thu 06:20:01 PM 47.7117 -122.3410 264° West 208 239 2,300 52 Climbing Seattle Center
Thu 06:21:02 PM 47.7056 -122.4270 199° South 202 232 2,300 -141 Level Seattle Center
Thu 06:22:09 PM 47.6553 -122.4520 135° Southeast 195 224 2,000 -135 Descending Seattle Center
Thu 06:23:15 PM 47.6169 -122.3950 133° Southeast 118 136 2,000 -429 Level Seattle Center
Thu 06:24:15 PM 47.5908 -122.3530 152° Southeast 130 150 1,100 -776 Descending Seattle Center
Thu 06:25:11 PM 47.5581 -122.3270 147° Southeast 142 163 500 4,950 Descending Seattle Center
Thu 06:26:15 PM 47.5214 -122.2920 149° Southeast 140 161 11,000 5,040 Climbing Seattle Center
Thu 06:27:16 PM 47.4844 -122.2590 149° Southeast 140 161 11,000  Level Seattle Center

Login

Don't have an account? Register now (free) for customized features, flight alerts, and more!